Time;durP1;ratioP1;P1;durP2;ratioP2;P2;SDS_P1;SDS_P2;PMS_P1;PMS_P2;Temp;Humidity;BMP_temperature;BMP_pressure;BME280_temperature;BME280_humidity;BME280_pressure;Samples;Min_cycle;Max_cycle;Signal;HPM_P1;HPM_P2
2021/12/02 00:01:03;;;;;;;5.82;2.85;;;;;;;;;;5008599;28;20423;-69
2021/12/02 00:03:29;;;;;;;5.32;2.58;;;;;;;;;;4981140;28;20395;-69
2021/12/02 00:05:54;;;;;;;7.22;3.47;;;;;;;;;;4979753;28;20428;-70
2021/12/02 00:08:19;;;;;;;5.65;2.55;;;;;;;;;;4989063;28;20052;-69
2021/12/02 00:10:45;;;;;;;7.70;3.00;;;;;;;;;;4988369;28;20072;-69
2021/12/02 00:13:11;;;;;;;4.85;2.40;;;;;;;;;;4988896;28;20420;-72
2021/12/02 00:21:02;;;;;;;5.35;2.85;;;;;;;;;;4987737;28;20523;-69
2021/12/02 00:21:06;;;;;;;7.57;3.08;;;;;;;;;;4988433;28;20451;-69
2021/12/02 00:23:34;;;;;;;5.88;2.63;;;;;;;;;;4987049;28;20442;-71
2021/12/02 00:26:03;;;;;;;8.53;3.17;;;;;;;;;;4988770;28;20043;-69
2021/12/02 00:28:29;;;;;;;6.13;2.70;;;;;;;;;;4988907;28;20448;-69
2021/12/02 00:30:58;;;;;;;6.55;3.20;;;;;;;;;;4989014;28;20025;-69
2021/12/02 00:33:25;;;;;;;5.57;2.47;;;;;;;;;;4988654;28;20379;-71
2021/12/02 00:35:51;;;;;;;3.63;1.92;;;;;;;;;;4988563;28;20466;-69
2021/12/02 00:38:18;;;;;;;6.03;2.25;;;;;;;;;;4986810;28;20355;-69
2021/12/02 00:40:44;;;;;;;4.28;2.22;;;;;;;;;;4986561;28;20106;-68
2021/12/02 00:43:09;;;;;;;3.72;2.05;;;;;;;;;;4988619;28;20029;-68
2021/12/02 00:45:35;;;;;;;3.70;2.03;;;;;;;;;;4988072;28;20398;-69
2021/12/02 00:48:00;;;;;;;4.40;2.33;;;;;;;;;;4988487;28;20107;-69
2021/12/02 00:50:26;;;;;;;7.55;2.42;;;;;;;;;;4998062;28;20411;-73
2021/12/02 00:52:54;;;;;;;3.50;2.38;;;;;;;;;;4990485;28;20407;-69
2021/12/02 00:55:20;;;;;;;5.32;2.17;;;;;;;;;;5012689;28;20530;-69
2021/12/02 00:57:46;;;;;;;3.45;2.25;;;;;;;;;;5011693;28;20033;-69
2021/12/02 01:00:12;;;;;;;5.50;1.85;;;;;;;;;;4993443;28;20024;-69
2021/12/02 01:02:38;;;;;;;3.75;2.10;;;;;;;;;;5011397;28;20390;-69
2021/12/02 01:05:04;;;;;;;2.92;1.95;;;;;;;;;;5011189;28;20454;-68
2021/12/02 01:07:29;;;;;;;4.53;2.28;;;;;;;;;;4994400;28;20404;-69
2021/12/02 01:09:55;;;;;;;4.13;1.83;;;;;;;;;;5011258;28;20412;-69
2021/12/02 01:12:20;;;;;;;4.55;2.30;;;;;;;;;;4993385;28;20366;-69
2021/12/02 01:14:46;;;;;;;3.33;1.70;;;;;;;;;;5011152;28;20493;-69
2021/12/02 01:17:11;;;;;;;2.80;1.50;;;;;;;;;;5011126;28;20438;-69
2021/12/02 01:19:36;;;;;;;3.97;1.80;;;;;;;;;;5012294;28;20021;-69
2021/12/02 01:22:02;;;;;;;3.70;1.50;;;;;;;;;;5011129;28;20021;-69
2021/12/02 01:24:29;;;;;;;4.35;2.00;;;;;;;;;;5009279;28;20421;-71
2021/12/02 01:26:56;;;;;;;4.85;1.98;;;;;;;;;;4992721;28;20117;-68
2021/12/02 01:29:22;;;;;;;5.45;2.13;;;;;;;;;;4993179;28;20423;-69
2021/12/02 01:31:50;;;;;;;3.70;1.60;;;;;;;;;;4992911;28;20327;-69
2021/12/02 01:34:16;;;;;;;3.65;1.70;;;;;;;;;;5010994;28;20032;-68
2021/12/02 01:36:41;;;;;;;2.10;1.23;;;;;;;;;;4992643;28;20427;-68
2021/12/02 01:39:08;;;;;;;1.80;1.35;;;;;;;;;;5010765;28;20424;-69
2021/12/02 01:41:45;;;;;;;4.35;1.85;;;;;;;;;;5010247;28;20457;-70
2021/12/02 01:44:12;;;;;;;3.75;1.75;;;;;;;;;;5011103;28;20474;-69
2021/12/02 01:46:39;;;;;;;4.97;1.95;;;;;;;;;;5009299;28;20451;-69
2021/12/02 01:49:05;;;;;;;2.17;1.38;;;;;;;;;;4992880;28;20550;-69
2021/12/02 01:51:40;;;;;;;2.47;1.40;;;;;;;;;;4992706;28;20455;-69
2021/12/02 01:54:19;;;;;;;2.45;1.20;;;;;;;;;;5011519;28;20351;-69
2021/12/02 01:57:08;;;;;;;2.80;1.60;;;;;;;;;;5010190;28;20435;-69
2021/12/02 01:59:35;;;;;;;1.75;1.35;;;;;;;;;;5003947;28;20431;-73
2021/12/02 02:02:06;;;;;;;3.00;1.75;;;;;;;;;;5010540;28;20423;-69
2021/12/02 02:04:31;;;;;;;3.20;1.50;;;;;;;;;;5010343;28;20435;-69
2021/12/02 02:06:58;;;;;;;1.63;1.20;;;;;;;;;;5010446;28;20443;-69
2021/12/02 02:09:26;;;;;;;3.03;1.40;;;;;;;;;;5010228;28;20340;-69
2021/12/02 02:11:51;;;;;;;1.80;1.30;;;;;;;;;;4992373;28;20489;-69
2021/12/02 02:14:17;;;;;;;2.55;1.63;;;;;;;;;;5010755;28;20426;-68
2021/12/02 02:16:43;;;;;;;3.13;1.23;;;;;;;;;;5010952;28;20399;-69
2021/12/02 02:19:11;;;;;;;1.52;1.15;;;;;;;;;;5010330;28;20399;-69
2021/12/02 02:21:37;;;;;;;3.20;1.80;;;;;;;;;;4992467;28;20029;-69
2021/12/02 02:24:03;;;;;;;3.05;1.60;;;;;;;;;;5009571;28;20511;-69
2021/12/02 02:26:34;;;;;;;4.15;1.52;;;;;;;;;;4992457;28;20366;-70
2021/12/02 02:29:00;;;;;;;3.47;1.55;;;;;;;;;;4991976;28;20389;-69
2021/12/02 02:31:28;;;;;;;2.75;1.33;;;;;;;;;;5010463;28;20349;-69
2021/12/02 02:33:53;;;;;;;1.70;1.05;;;;;;;;;;4991854;28;20451;-68
2021/12/02 02:36:21;;;;;;;2.17;1.27;;;;;;;;;;4992088;28;20171;-68
2021/12/02 02:38:55;;;;;;;3.33;1.45;;;;;;;;;;5008227;28;20463;-69
2021/12/02 02:41:22;;;;;;;2.65;1.30;;;;;;;;;;4993148;28;20423;-69
2021/12/02 02:43:49;;;;;;;2.72;1.05;;;;;;;;;;5009968;28;20331;-69
2021/12/02 02:46:25;;;;;;;1.85;1.30;;;;;;;;;;5010885;28;20335;-69
2021/12/02 02:48:50;;;;;;;3.08;1.50;;;;;;;;;;5009632;28;20463;-68
2021/12/02 02:51:16;;;;;;;1.80;0.95;;;;;;;;;;4975622;28;20506;-68
2021/12/02 02:53:41;;;;;;;2.65;1.38;;;;;;;;;;4971981;28;20447;-69
2021/12/02 02:56:13;;;;;;;1.88;1.15;;;;;;;;;;4972349;28;20305;-68
2021/12/02 02:58:55;;;;;;;4.03;1.17;;;;;;;;;;4991472;28;20517;-68
2021/12/02 03:04:19;;;;;;;1.90;1.50;;;;;;;;;;4973524;28;20468;-69
2021/12/02 03:09:25;;;;;;;2.13;1.08;;;;;;;;;;4989813;28;20318;-79
2021/12/02 03:11:56;;;;;;;2.80;1.40;;;;;;;;;;4973419;28;20025;-69
2021/12/02 03:14:30;;;;;;;1.80;1.02;;;;;;;;;;4972541;28;20328;-69
2021/12/02 03:16:55;;;;;;;2.50;1.40;;;;;;;;;;4972563;28;20444;-69
2021/12/02 03:19:24;;;;;;;3.13;1.50;;;;;;;;;;4989127;28;20343;-69
2021/12/02 03:21:49;;;;;;;3.97;1.50;;;;;;;;;;4971486;28;20472;-69
2021/12/02 03:24:15;;;;;;;1.73;1.17;;;;;;;;;;4989760;28;20789;-69
2021/12/02 03:26:40;;;;;;;2.13;1.48;;;;;;;;;;4990059;28;20455;-69
2021/12/02 03:29:06;;;;;;;1.83;1.33;;;;;;;;;;4971512;28;20321;-69
2021/12/02 03:31:32;;;;;;;1.58;1.10;;;;;;;;;;4990047;28;20340;-69
2021/12/02 03:33:57;;;;;;;1.90;1.10;;;;;;;;;;4971189;28;20051;-69
2021/12/02 03:36:23;;;;;;;2.47;1.20;;;;;;;;;;4971207;28;20033;-68
2021/12/02 03:38:48;;;;;;;2.35;1.17;;;;;;;;;;4989595;28;20339;-69
2021/12/02 03:41:14;;;;;;;1.88;1.13;;;;;;;;;;4971056;28;20438;-69
2021/12/02 03:43:45;;;;;;;8.50;1.40;;;;;;;;;;4971214;28;20352;-69
2021/12/02 03:46:12;;;;;;;3.88;1.10;;;;;;;;;;4988900;28;20339;-69
2021/12/02 03:48:38;;;;;;;3.03;0.90;;;;;;;;;;4971049;28;20025;-69
2021/12/02 03:51:05;;;;;;;2.15;1.10;;;;;;;;;;4985214;28;20506;-69
2021/12/02 03:53:30;;;;;;;2.58;1.40;;;;;;;;;;5008423;28;20394;-68
2021/12/02 03:55:55;;;;;;;1.90;1.17;;;;;;;;;;4991510;28;20111;-69
2021/12/02 03:58:21;;;;;;;2.67;1.23;;;;;;;;;;5010006;28;20327;-68
2021/12/02 04:00:46;;;;;;;2.88;1.65;;;;;;;;;;5009550;28;20312;-69
2021/12/02 04:03:12;;;;;;;2.72;1.20;;;;;;;;;;5008585;28;20443;-69
2021/12/02 04:05:37;;;;;;;2.35;1.33;;;;;;;;;;4990679;28;20415;-69
2021/12/02 04:08:02;;;;;;;1.58;1.20;;;;;;;;;;5008413;28;20500;-69
2021/12/02 04:10:28;;;;;;;3.83;1.20;;;;;;;;;;5009504;28;20472;-70
2021/12/02 04:15:54;;;;;;;3.17;1.20;;;;;;;;;;4990946;28;20367;-69
2021/12/02 04:18:20;;;;;;;2.90;1.50;;;;;;;;;;5008688;28;20427;-68
2021/12/02 04:20:45;;;;;;;1.83;1.20;;;;;;;;;;5008117;28;20492;-68
2021/12/02 04:23:10;;;;;;;2.03;1.40;;;;;;;;;;5008522;28;20482;-68
2021/12/02 04:25:35;;;;;;;2.53;1.23;;;;;;;;;;4990667;28;20439;-69
2021/12/02 04:28:01;;;;;;;2.53;1.13;;;;;;;;;;4992182;28;20443;-70
2021/12/02 04:30:27;;;;;;;1.27;0.80;;;;;;;;;;4994717;28;20460;-69
2021/12/02 04:32:53;;;;;;;1.92;0.98;;;;;;;;;;4994328;28;20362;-69
2021/12/02 04:35:18;;;;;;;1.73;1.13;;;;;;;;;;5011966;28;20409;-68
2021/12/02 04:37:44;;;;;;;1.48;1.05;;;;;;;;;;5011940;28;20044;-69
2021/12/02 04:40:12;;;;;;;3.30;1.58;;;;;;;;;;5011933;28;20470;-70
2021/12/02 04:42:38;;;;;;;2.95;1.15;;;;;;;;;;4994802;28;20423;-69
2021/12/02 04:45:04;;;;;;;1.95;0.98;;;;;;;;;;5011709;28;20037;-68
2021/12/02 04:47:30;;;;;;;1.55;0.93;;;;;;;;;;5012236;28;20391;-68
2021/12/02 04:49:55;;;;;;;1.95;0.85;;;;;;;;;;4994609;28;20478;-68
2021/12/02 04:52:21;;;;;;;3.20;0.98;;;;;;;;;;5011705;28;20494;-69
2021/12/02 04:54:46;;;;;;;1.65;1.02;;;;;;;;;;5011794;28;20367;-68
2021/12/02 04:57:11;;;;;;;3.63;1.00;;;;;;;;;;5011955;28;20336;-69
2021/12/02 04:59:37;;;;;;;2.70;1.13;;;;;;;;;;5011866;28;20348;-69
2021/12/02 05:02:02;;;;;;;1.40;0.75;;;;;;;;;;4993848;28;20529;-69
2021/12/02 05:04:28;;;;;;;1.70;1.05;;;;;;;;;;5011671;28;20131;-69
2021/12/02 05:06:53;;;;;;;1.90;1.00;;;;;;;;;;5012196;28;20412;-68
2021/12/02 05:09:18;;;;;;;1.98;1.40;;;;;;;;;;5011539;28;20024;-68
2021/12/02 05:11:44;;;;;;;2.10;1.13;;;;;;;;;;5012422;28;20412;-69
2021/12/02 05:14:09;;;;;;;1.35;1.00;;;;;;;;;;4993173;28;20392;-68
2021/12/02 05:16:39;;;;;;;2.80;1.30;;;;;;;;;;4976840;28;20115;-68
2021/12/02 05:19:04;;;;;;;2.97;1.60;;;;;;;;;;5011897;28;20462;-71
2021/12/02 05:21:29;;;;;;;2.13;1.00;;;;;;;;;;5012461;28;20419;-69
2021/12/02 05:23:55;;;;;;;0.90;0.70;;;;;;;;;;5011293;28;20423;-69
2021/12/02 05:26:21;;;;;;;3.92;1.70;;;;;;;;;;4993731;28;20477;-68
2021/12/02 05:28:46;;;;;;;1.80;1.05;;;;;;;;;;5010972;28;20025;-70
2021/12/02 05:31:12;;;;;;;2.92;1.20;;;;;;;;;;4993222;28;20484;-69
2021/12/02 05:33:37;;;;;;;0.77;0.68;;;;;;;;;;4992883;28;20478;-70
2021/12/02 05:36:02;;;;;;;1.48;0.93;;;;;;;;;;5011359;28;20037;-69
2021/12/02 05:38:28;;;;;;;2.88;0.98;;;;;;;;;;5010466;28;20435;-69
2021/12/02 05:40:53;;;;;;;2.28;1.10;;;;;;;;;;5010535;28;20346;-68
2021/12/02 05:43:18;;;;;;;1.55;0.80;;;;;;;;;;5010739;28;20442;-69
2021/12/02 05:45:44;;;;;;;2.05;1.13;;;;;;;;;;5010959;28;20054;-70
2021/12/02 05:48:09;;;;;;;2.15;1.10;;;;;;;;;;5011010;28;20519;-69
2021/12/02 05:50:35;;;;;;;1.98;0.90;;;;;;;;;;5010259;28;20514;-69
2021/12/02 05:53:00;;;;;;;2.08;0.93;;;;;;;;;;4993448;28;20451;-69
2021/12/02 05:55:25;;;;;;;1.10;0.70;;;;;;;;;;4992978;28;20043;-68
2021/12/02 05:57:51;;;;;;;3.38;1.20;;;;;;;;;;5010791;28;20387;-69
2021/12/02 06:00:17;;;;;;;1.85;1.20;;;;;;;;;;5011223;28;20427;-69
2021/12/02 06:02:42;;;;;;;1.58;0.90;;;;;;;;;;5011811;28;20423;-68
2021/12/02 06:05:08;;;;;;;3.42;1.35;;;;;;;;;;4992204;28;20036;-69
2021/12/02 06:07:34;;;;;;;2.42;1.33;;;;;;;;;;5010474;28;20413;-68
2021/12/02 06:09:59;;;;;;;2.97;1.15;;;;;;;;;;4992089;28;20316;-69
2021/12/02 06:12:24;;;;;;;2.47;1.42;;;;;;;;;;4992665;28;20363;-68
2021/12/02 06:14:50;;;;;;;3.38;1.10;;;;;;;;;;4992399;28;20432;-69
2021/12/02 06:17:15;;;;;;;3.17;1.20;;;;;;;;;;5009973;28;20336;-69
2021/12/02 06:19:41;;;;;;;3.28;1.02;;;;;;;;;;4992942;28;20396;-69
2021/12/02 06:22:08;;;;;;;3.65;1.30;;;;;;;;;;5010795;28;20417;-69
2021/12/02 06:24:44;;;;;;;1.80;1.08;;;;;;;;;;5010900;28;20535;-68
2021/12/02 06:27:10;;;;;;;2.17;0.90;;;;;;;;;;4976925;28;20509;-68
2021/12/02 06:29:37;;;;;;;1.30;1.00;;;;;;;;;;4991931;28;20413;-71
2021/12/02 06:32:04;;;;;;;2.45;1.15;;;;;;;;;;5010173;28;20512;-69
2021/12/02 06:34:30;;;;;;;2.75;1.20;;;;;;;;;;4992043;28;20355;-68
2021/12/02 06:36:55;;;;;;;2.33;0.90;;;;;;;;;;5009628;28;20359;-69
2021/12/02 06:39:21;;;;;;;2.17;0.82;;;;;;;;;;4991861;28;20317;-68
2021/12/02 06:41:46;;;;;;;4.00;1.30;;;;;;;;;;5010271;28;20424;-69
2021/12/02 06:44:13;;;;;;;2.28;1.02;;;;;;;;;;4991367;28;20044;-69
2021/12/02 06:46:38;;;;;;;1.17;0.70;;;;;;;;;;5009797;28;20410;-69
2021/12/02 06:49:03;;;;;;;1.85;0.77;;;;;;;;;;5009329;28;20378;-68
2021/12/02 06:51:30;;;;;;;1.73;1.00;;;;;;;;;;4973502;28;20525;-69
2021/12/02 06:53:56;;;;;;;1.40;0.90;;;;;;;;;;4990668;28;20551;-69
2021/12/02 06:56:21;;;;;;;2.45;1.20;;;;;;;;;;4971871;28;20064;-69
2021/12/02 06:58:47;;;;;;;1.48;0.95;;;;;;;;;;4990128;28;20021;-68
2021/12/02 07:01:12;;;;;;;2.75;1.38;;;;;;;;;;4971818;28;20452;-68
2021/12/02 07:03:37;;;;;;;2.13;1.02;;;;;;;;;;4971667;28;20333;-69
2021/12/02 07:06:03;;;;;;;2.38;0.90;;;;;;;;;;4989362;28;20371;-68
2021/12/02 07:08:30;;;;;;;1.33;1.10;;;;;;;;;;4989866;28;20040;-69
2021/12/02 07:10:56;;;;;;;3.72;0.90;;;;;;;;;;4989222;28;20029;-69
2021/12/02 07:13:21;;;;;;;6.18;1.17;;;;;;;;;;4989309;28;20462;-69
2021/12/02 07:15:50;;;;;;;2.38;1.27;;;;;;;;;;4989509;28;20510;-68
2021/12/02 07:18:16;;;;;;;2.47;0.90;;;;;;;;;;4989591;28;20317;-69
2021/12/02 07:20:43;;;;;;;2.78;1.70;;;;;;;;;;4971877;28;20324;-68
2021/12/02 07:23:09;;;;;;;1.63;0.90;;;;;;;;;;4972510;28;20461;-68
2021/12/02 07:25:34;;;;;;;1.27;0.90;;;;;;;;;;4972021;28;20440;-71
2021/12/02 07:28:01;;;;;;;1.45;0.98;;;;;;;;;;4989631;28;20388;-68
2021/12/02 07:30:26;;;;;;;2.38;1.30;;;;;;;;;;4990429;28;20408;-69
2021/12/02 07:32:54;;;;;;;1.27;0.73;;;;;;;;;;4971443;28;20513;-69
2021/12/02 07:35:20;;;;;;;1.20;0.90;;;;;;;;;;4989498;28;20431;-68
2021/12/02 07:37:51;;;;;;;2.38;1.27;;;;;;;;;;4971464;28;20494;-69
2021/12/02 07:40:18;;;;;;;1.45;1.00;;;;;;;;;;4989423;28;20336;-68
2021/12/02 07:42:47;;;;;;;3.67;0.98;;;;;;;;;;4988937;28;20424;-68
2021/12/02 07:45:13;;;;;;;1.63;0.90;;;;;;;;;;4989050;28;20328;-68
2021/12/02 07:47:40;;;;;;;1.38;0.98;;;;;;;;;;4989493;28;20347;-69
2021/12/02 07:50:08;;;;;;;2.05;1.02;;;;;;;;;;4976513;28;20467;-68
2021/12/02 07:52:34;;;;;;;1.20;0.98;;;;;;;;;;4991060;28;20466;-68
2021/12/02 07:55:05;;;;;;;2.03;1.17;;;;;;;;;;5008874;28;20576;-68
2021/12/02 07:57:33;;;;;;;4.18;1.35;;;;;;;;;;4990574;28;20466;-69
2021/12/02 07:59:58;;;;;;;2.55;1.27;;;;;;;;;;5009309;28;20408;-68
2021/12/02 08:02:25;;;;;;;2.65;1.40;;;;;;;;;;5009884;28;20493;-69
2021/12/02 08:04:51;;;;;;;2.90;1.33;;;;;;;;;;4994936;28;20470;-68
2021/12/02 08:07:16;;;;;;;1.98;0.93;;;;;;;;;;5012878;28;20467;-69
2021/12/02 08:09:41;;;;;;;2.05;1.20;;;;;;;;;;5012486;28;20352;-68
2021/12/02 08:12:07;;;;;;;3.13;1.02;;;;;;;;;;5012403;28;20390;-68
2021/12/02 08:14:32;;;;;;;1.63;1.08;;;;;;;;;;5014199;28;20341;-70
2021/12/02 08:16:58;;;;;;;2.13;1.48;;;;;;;;;;5012755;28;20332;-70
2021/12/02 08:19:23;;;;;;;1.67;1.13;;;;;;;;;;5012545;28;20375;-70
2021/12/02 08:21:48;;;;;;;3.60;1.83;;;;;;;;;;5012217;28;20060;-69
2021/12/02 08:24:14;;;;;;;2.95;1.30;;;;;;;;;;5012728;28;20439;-68
2021/12/02 08:26:40;;;;;;;2.10;1.20;;;;;;;;;;5012646;28;20090;-68
2021/12/02 08:29:06;;;;;;;3.28;1.35;;;;;;;;;;5012298;28;20033;-69
2021/12/02 08:31:31;;;;;;;1.95;1.30;;;;;;;;;;4994733;28;20351;-69
2021/12/02 08:33:57;;;;;;;1.58;1.05;;;;;;;;;;5011938;28;20032;-69
2021/12/02 08:36:26;;;;;;;2.35;1.23;;;;;;;;;;5012575;28;20443;-69
2021/12/02 08:38:51;;;;;;;1.80;1.00;;;;;;;;;;4994622;28;20317;-69
2021/12/02 08:41:19;;;;;;;2.58;1.80;;;;;;;;;;5013969;28;20090;-69
2021/12/02 08:43:48;;;;;;;1.85;1.00;;;;;;;;;;5012067;28;20396;-68
2021/12/02 08:46:14;;;;;;;2.05;1.23;;;;;;;;;;4994156;28;20474;-68
2021/12/02 08:48:39;;;;;;;2.75;1.63;;;;;;;;;;5012902;28;20403;-70
2021/12/02 08:51:06;;;;;;;4.43;1.33;;;;;;;;;;5011905;28;20338;-68
2021/12/02 08:53:32;;;;;;;3.20;1.15;;;;;;;;;;4994355;28;20115;-68
2021/12/02 08:55:57;;;;;;;3.95;1.77;;;;;;;;;;4993808;28;20488;-69
2021/12/02 08:58:22;;;;;;;2.80;1.30;;;;;;;;;;5013285;28;20024;-68
2021/12/02 09:00:48;;;;;;;3.38;1.40;;;;;;;;;;4994035;28;20125;-72
2021/12/02 09:03:15;;;;;;;3.00;1.10;;;;;;;;;;4993842;28;20036;-68
2021/12/02 09:05:41;;;;;;;3.05;1.58;;;;;;;;;;4993821;28;20420;-68
2021/12/02 09:08:07;;;;;;;2.90;1.50;;;;;;;;;;5009786;28;20296;-68
2021/12/02 09:10:34;;;;;;;5.07;1.77;;;;;;;;;;5011330;28;20367;-68
2021/12/02 09:13:02;;;;;;;3.33;1.52;;;;;;;;;;4993307;28;20412;-68
2021/12/02 09:15:28;;;;;;;2.00;1.40;;;;;;;;;;4992075;28;20423;-69
2021/12/02 09:17:53;;;;;;;2.65;1.40;;;;;;;;;;5011391;28;20425;-68
2021/12/02 09:20:19;;;;;;;3.22;1.48;;;;;;;;;;5011594;28;20560;-68
2021/12/02 09:22:45;;;;;;;4.68;1.73;;;;;;;;;;4993181;28;20443;-69
2021/12/02 09:25:13;;;;;;;3.92;1.80;;;;;;;;;;5011576;28;20344;-68
2021/12/02 09:27:38;;;;;;;2.85;1.70;;;;;;;;;;5011363;28;20485;-68
2021/12/02 09:30:04;;;;;;;3.60;1.65;;;;;;;;;;5012099;28;20427;-68
2021/12/02 09:32:32;;;;;;;3.72;1.60;;;;;;;;;;5011323;28;20522;-68
2021/12/02 09:34:58;;;;;;;4.68;1.70;;;;;;;;;;5010974;28;20048;-68
2021/12/02 09:37:24;;;;;;;6.32;2.10;;;;;;;;;;5011266;28;20538;-68
2021/12/02 09:39:49;;;;;;;5.60;1.80;;;;;;;;;;5011133;28;20396;-69
2021/12/02 09:42:14;;;;;;;5.18;1.85;;;;;;;;;;5011287;28;20378;-68
2021/12/02 09:44:42;;;;;;;8.93;2.00;;;;;;;;;;5010652;28;20483;-68
2021/12/02 09:47:08;;;;;;;4.97;1.95;;;;;;;;;;4993975;28;20402;-68
2021/12/02 09:49:34;;;;;;;3.45;1.80;;;;;;;;;;4992546;28;20339;-67
2021/12/02 09:52:04;;;;;;;5.20;2.00;;;;;;;;;;5009648;28;20367;-68
2021/12/02 09:54:37;;;;;;;4.00;1.90;;;;;;;;;;4993680;28;20451;-68
2021/12/02 09:57:05;;;;;;;2.95;1.63;;;;;;;;;;4993671;28;20021;-68
2021/12/02 10:02:11;;;;;;;3.42;1.40;;;;;;;;;;4994790;28;20414;-69
2021/12/02 10:04:45;;;;;;;3.03;1.70;;;;;;;;;;5010242;28;20108;-68
2021/12/02 10:07:38;;;;;;;3.40;1.90;;;;;;;;;;5010932;28;20100;-68
2021/12/02 10:10:51;;;;;;;;;;;;;;;;;;5010478;28;20431;-68
2021/12/02 10:13:11;;;;;;;3.40;2.05;;;;;;;;;;4996894;28;20361;-68
2021/12/02 10:15:39;;;;;;;4.10;1.73;;;;;;;;;;5010162;28;20461;-68
2021/12/02 10:18:11;;;;;;;6.28;1.75;;;;;;;;;;5010200;28;20409;-68
2021/12/02 10:20:40;;;;;;;3.95;1.88;;;;;;;;;;5011076;28;20058;-68
2021/12/02 10:23:17;;;;;;;;;;;;;;;;;;5011625;28;20367;-68
2021/12/02 10:25:48;;;;;;;3.35;1.70;;;;;;;;;;5011254;28;19986;-69
2021/12/02 10:28:16;;;;;;;4.38;1.70;;;;;;;;;;4992520;28;20427;-68
2021/12/02 10:30:43;;;;;;;2.13;1.60;;;;;;;;;;5008357;28;20320;-68
2021/12/02 10:33:10;;;;;;;4.15;1.60;;;;;;;;;;5009877;28;20432;-68
2021/12/02 10:35:44;;;;;;;6.07;2.00;;;;;;;;;;5009780;28;20399;-68
2021/12/02 10:38:35;;;;;;;3.38;1.70;;;;;;;;;;4975224;28;20406;-68
2021/12/02 10:41:02;;;;;;;4.07;1.85;;;;;;;;;;4992172;28;20144;-68
2021/12/02 10:43:28;;;;;;;3.40;1.60;;;;;;;;;;5010090;28;20452;-68
2021/12/02 10:46:12;;;;;;;4.75;2.35;;;;;;;;;;5009840;28;20389;-68
2021/12/02 10:48:51;;;;;;;4.90;1.60;;;;;;;;;;4992295;28;20086;-70
2021/12/02 10:51:40;;;;;;;3.30;1.77;;;;;;;;;;4976935;28;20329;-68
2021/12/02 10:54:13;;;;;;;5.40;1.90;;;;;;;;;;4989917;28;20343;-68
2021/12/02 10:56:39;;;;;;;3.65;1.73;;;;;;;;;;4972206;28;20299;-69
2021/12/02 10:59:24;;;;;;;4.05;1.88;;;;;;;;;;4989761;28;20515;-68
2021/12/02 11:01:51;;;;;;;4.00;1.88;;;;;;;;;;4989625;28;20466;-68
2021/12/02 11:04:16;;;;;;;4.30;2.00;;;;;;;;;;4989873;28;20563;-68
2021/12/02 11:06:46;;;;;;;3.33;2.00;;;;;;;;;;4989792;28;20488;-68
2021/12/02 11:09:28;;;;;;;4.82;2.20;;;;;;;;;;4989918;28;20455;-68
2021/12/02 11:12:15;;;;;;;4.53;2.10;;;;;;;;;;4989638;28;20382;-69
2021/12/02 11:14:50;;;;;;;9.07;2.17;;;;;;;;;;4990042;28;20391;-67
2021/12/02 11:17:16;;;;;;;4.57;2.20;;;;;;;;;;4989145;28;20380;-69
2021/12/02 11:19:45;;;;;;;9.50;2.75;;;;;;;;;;4989662;28;20102;-68
2021/12/02 11:22:14;;;;;;;4.80;2.25;;;;;;;;;;4989416;28;20530;-68
2021/12/02 11:24:40;;;;;;;5.40;2.10;;;;;;;;;;4971426;28;20487;-68
2021/12/02 11:27:07;;;;;;;6.40;2.65;;;;;;;;;;4971979;28;20162;-68
2021/12/02 11:29:55;;;;;;;5.13;2.55;;;;;;;;;;4990469;28;20083;-68
2021/12/02 11:32:48;;;;;;;5.68;2.67;;;;;;;;;;4989333;28;20349;-70
2021/12/02 11:35:21;;;;;;;5.78;2.78;;;;;;;;;;4978718;28;20064;-67
2021/12/02 11:37:50;;;;;;;6.10;2.55;;;;;;;;;;4970980;28;20435;-68
2021/12/02 11:40:24;;;;;;;6.53;2.78;;;;;;;;;;4989231;28;20494;-68
2021/12/02 11:42:50;;;;;;;6.82;2.28;;;;;;;;;;4970995;28;20025;-68
2021/12/02 11:45:18;;;;;;;8.25;2.38;;;;;;;;;;4988874;28;20432;-68
2021/12/02 11:47:44;;;;;;;7.15;2.42;;;;;;;;;;4989032;28;20106;-69
2021/12/02 11:50:13;;;;;;;5.10;2.25;;;;;;;;;;4971015;28;20391;-68
2021/12/02 11:52:39;;;;;;;4.83;2.83;;;;;;;;;;4989249;28;20443;-68
2021/12/02 11:55:08;;;;;;;5.45;2.60;;;;;;;;;;4989612;28;20576;-68
2021/12/02 11:57:34;;;;;;;3.60;1.80;;;;;;;;;;4971316;28;20475;-67
2021/12/02 12:00:02;;;;;;;4.65;2.40;;;;;;;;;;4988864;28;20495;-68
2021/12/02 12:02:28;;;;;;;5.97;2.85;;;;;;;;;;4989483;28;20332;-68
2021/12/02 12:05:03;;;;;;;7.70;2.55;;;;;;;;;;4970819;28;20048;-68
2021/12/02 12:07:47;;;;;;;3.97;2.13;;;;;;;;;;4990653;28;20360;-68
2021/12/02 12:10:21;;;;;;;10.30;2.88;;;;;;;;;;4971066;28;20380;-70
2021/12/02 12:12:47;;;;;;;4.15;2.45;;;;;;;;;;4989472;28;20336;-68
2021/12/02 12:15:34;;;;;;;4.53;2.35;;;;;;;;;;4988419;28;20502;-68
2021/12/02 12:18:00;;;;;;;5.10;2.28;;;;;;;;;;4955538;28;20313;-68
2021/12/02 12:20:52;;;;;;;7.78;2.88;;;;;;;;;;4988789;28;20502;-68
2021/12/02 12:23:28;;;;;;;7.13;2.13;;;;;;;;;;4988686;28;20433;-67
2021/12/02 12:26:09;;;;;;;6.28;2.35;;;;;;;;;;4971368;28;20359;-67
2021/12/02 12:29:06;;;;;;;5.70;2.40;;;;;;;;;;4899754;28;20447;-68
2021/12/02 12:31:31;;;;;;;6.45;2.55;;;;;;;;;;4989261;28;20447;-67
2021/12/02 12:33:59;;;;;;;6.20;2.30;;;;;;;;;;4970577;28;20470;-69
2021/12/02 12:36:41;;;;;;;6.38;2.85;;;;;;;;;;4971355;28;20432;-69
2021/12/02 12:39:20;;;;;;;6.13;2.70;;;;;;;;;;4989449;28;20352;-68
2021/12/02 12:42:12;;;;;;;5.30;2.55;;;;;;;;;;4988985;28;20390;-68
2021/12/02 12:44:49;;;;;;;6.50;2.35;;;;;;;;;;4980225;28;20530;-68
2021/12/02 12:47:16;;;;;;;6.00;2.45;;;;;;;;;;4970934;28;20359;-68
2021/12/02 12:49:42;;;;;;;5.55;2.60;;;;;;;;;;4972669;28;20475;-69
2021/12/02 12:52:19;;;;;;;8.35;3.17;;;;;;;;;;4994035;28;20364;-68
2021/12/02 12:55:18;;;;;;;6.70;2.25;;;;;;;;;;5013275;28;20426;-67
2021/12/02 12:58:13;;;;;;;5.22;2.28;;;;;;;;;;4994065;28;20033;-69
2021/12/02 13:00:46;;;;;;;3.13;2.00;;;;;;;;;;5012047;28;20394;-69
2021/12/02 13:03:16;;;;;;;4.60;2.53;;;;;;;;;;4993713;28;20420;-68
2021/12/02 13:05:55;;;;;;;5.68;2.63;;;;;;;;;;5010462;28;20427;-68
2021/12/02 13:08:26;;;;;;;4.95;2.17;;;;;;;;;;4994767;28;20339;-68
2021/12/02 13:10:56;;;;;;;4.97;2.75;;;;;;;;;;5011482;28;20358;-68
2021/12/02 13:13:27;;;;;;;7.78;3.20;;;;;;;;;;5011615;28;20067;-69
2021/12/02 13:15:53;;;;;;;3.50;1.98;;;;;;;;;;4994175;28;20431;-68
2021/12/02 13:18:37;;;;;;;4.90;2.78;;;;;;;;;;5011626;28;20347;-68
2021/12/02 13:21:31;;;;;;;4.82;2.30;;;;;;;;;;5010050;28;20476;-68
2021/12/02 13:24:10;;;;;;;6.15;2.85;;;;;;;;;;5011613;28;20360;-68
2021/12/02 13:26:37;;;;;;;;;;;;;;;;;;5010561;28;20376;-69
2021/12/02 13:29:09;;;;;;;6.13;2.47;;;;;;;;;;5011333;28;21040;-68
2021/12/02 13:31:36;;;;;;;6.28;2.97;;;;;;;;;;5010363;28;20032;-68
2021/12/02 13:34:05;;;;;;;7.20;3.95;;;;;;;;;;4993245;28;20040;-67
2021/12/02 13:36:34;;;;;;;8.30;3.20;;;;;;;;;;4992984;28;20505;-68
2021/12/02 13:39:30;;;;;;;8.68;3.35;;;;;;;;;;5011239;28;20431;-69
2021/12/02 13:41:59;;;;;;;6.88;3.45;;;;;;;;;;4998227;28;20455;-67
2021/12/02 13:44:38;;;;;;;8.43;3.33;;;;;;;;;;5009318;28;20458;-68
2021/12/02 13:47:12;;;;;;;9.43;3.10;;;;;;;;;;4993516;28;20378;-67
2021/12/02 13:49:40;;;;;;;9.77;3.63;;;;;;;;;;5010605;28;20355;-68
2021/12/02 13:52:24;;;;;;;9.40;3.55;;;;;;;;;;5012193;28;20386;-68
2021/12/02 13:55:13;;;;;;;8.95;4.13;;;;;;;;;;4994894;28;20099;-67
2021/12/02 13:57:57;;;;;;;7.65;3.10;;;;;;;;;;5011076;28;20435;-67
2021/12/02 14:00:27;;;;;;;9.73;3.72;;;;;;;;;;5010268;28;20439;-68
2021/12/02 14:03:03;;;;;;;6.10;3.63;;;;;;;;;;4993067;28;20453;-69
2021/12/02 14:05:30;;;;;;;10.20;3.72;;;;;;;;;;5010484;28;20436;-68
2021/12/02 14:07:58;;;;;;;7.93;3.17;;;;;;;;;;5012082;28;20089;-68
2021/12/02 14:10:26;;;;;;;9.75;3.67;;;;;;;;;;5009366;28;20157;-68
2021/12/02 14:12:54;;;;;;;7.53;3.53;;;;;;;;;;4992325;28;20421;-68
2021/12/02 14:15:26;;;;;;;7.32;3.17;;;;;;;;;;5010633;28;20024;-68
2021/12/02 14:18:01;;;;;;;6.15;3.33;;;;;;;;;;4992815;28;20028;-67
2021/12/02 14:20:34;;;;;;;5.80;3.25;;;;;;;;;;5010341;28;20511;-68
2021/12/02 14:23:01;;;;;;;5.72;2.83;;;;;;;;;;4992564;28;20463;-67
2021/12/02 14:25:28;;;;;;;11.82;3.30;;;;;;;;;;5010084;28;20385;-67
2021/12/02 14:28:06;;;;;;;9.90;3.92;;;;;;;;;;5009766;28;20491;-69
2021/12/02 14:30:42;;;;;;;8.52;3.97;;;;;;;;;;5010064;28;20320;-68
2021/12/02 14:33:09;;;;;;;6.97;3.13;;;;;;;;;;5009735;28;20435;-68
2021/12/02 14:35:53;;;;;;;10.27;4.35;;;;;;;;;;5010124;28;22339;-68
2021/12/02 14:38:24;;;;;;;9.95;3.15;;;;;;;;;;4992067;28;20439;-68
2021/12/02 14:40:56;;;;;;;8.82;3.88;;;;;;;;;;5009969;28;20422;-68
2021/12/02 14:43:23;;;;;;;11.73;3.92;;;;;;;;;;5009931;28;20423;-67
2021/12/02 14:45:51;;;;;;;12.73;5.10;;;;;;;;;;4992553;28;20501;-69
2021/12/02 14:48:21;;;;;;;15.37;5.90;;;;;;;;;;5008734;28;20366;-67
2021/12/02 14:50:59;;;;;;;;;;;;;;;;;;5009937;28;20586;-68
2021/12/02 14:53:34;;;;;;;12.32;5.95;;;;;;;;;;5008709;28;20238;-67
2021/12/02 14:56:05;;;;;;;14.15;5.82;;;;;;;;;;5010217;28;20441;-67
2021/12/02 14:58:31;;;;;;;11.80;5.18;;;;;;;;;;5009324;28;20393;-68
2021/12/02 15:01:15;;;;;;;15.55;6.50;;;;;;;;;;5010602;28;20089;-68
2021/12/02 15:03:40;;;;;;;13.70;5.95;;;;;;;;;;4991560;28;20523;-67
2021/12/02 15:06:06;;;;;;;11.45;6.03;;;;;;;;;;5010461;28;20080;-67
2021/12/02 15:08:33;;;;;;;15.13;6.05;;;;;;;;;;5009730;28;20367;-68